sensor_id;sensor_type;location;lat;lon;timestamp;P1;durP1;ratioP1;P2;durP2;ratioP2
59766;SDS011;46248;58.364;25.582;2024-02-21T00:03:08;5.45;;;3.38;;
59766;SDS011;46248;58.364;25.582;2024-02-21T00:06:30;4.43;;;2.88;;
59766;SDS011;46248;58.364;25.582;2024-02-21T00:09:53;6.43;;;3.15;;
59766;SDS011;46248;58.364;25.582;2024-02-21T00:13:15;4.78;;;3.10;;
59766;SDS011;46248;58.364;25.582;2024-02-21T00:16:37;6.53;;;2.70;;
59766;SDS011;46248;58.364;25.582;2024-02-21T00:19:59;7.82;;;3.40;;
59766;SDS011;46248;58.364;25.582;2024-02-21T00:23:20;5.00;;;2.97;;
59766;SDS011;46248;58.364;25.582;2024-02-21T00:26:44;4.30;;;2.47;;
59766;SDS011;46248;58.364;25.582;2024-02-21T00:30:06;4.15;;;3.10;;
59766;SDS011;46248;58.364;25.582;2024-02-21T00:33:28;6.38;;;2.78;;
59766;SDS011;46248;58.364;25.582;2024-02-21T00:36:50;5.60;;;3.10;;
59766;SDS011;46248;58.364;25.582;2024-02-21T00:40:12;6.95;;;3.20;;
59766;SDS011;46248;58.364;25.582;2024-02-21T00:43:38;4.95;;;2.70;;
59766;SDS011;46248;58.364;25.582;2024-02-21T00:47:00;9.82;;;3.63;;
59766;SDS011;46248;58.364;25.582;2024-02-21T00:50:22;7.45;;;2.97;;
59766;SDS011;46248;58.364;25.582;2024-02-21T00:53:44;5.28;;;2.83;;
59766;SDS011;46248;58.364;25.582;2024-02-21T00:57:05;7.25;;;3.38;;
59766;SDS011;46248;58.364;25.582;2024-02-21T01:00:29;4.28;;;3.33;;
59766;SDS011;46248;58.364;25.582;2024-02-21T01:03:50;7.78;;;3.70;;
59766;SDS011;46248;58.364;25.582;2024-02-21T01:07:13;5.00;;;2.70;;
59766;SDS011;46248;58.364;25.582;2024-02-21T01:10:35;3.67;;;2.55;;
59766;SDS011;46248;58.364;25.582;2024-02-21T01:13:57;4.55;;;2.83;;
59766;SDS011;46248;58.364;25.582;2024-02-21T01:17:20;3.38;;;2.40;;
59766;SDS011;46248;58.364;25.582;2024-02-21T01:20:42;6.28;;;3.05;;
59766;SDS011;46248;58.364;25.582;2024-02-21T01:24:04;4.65;;;3.10;;
59766;SDS011;46248;58.364;25.582;2024-02-21T01:27:26;6.43;;;2.80;;
59766;SDS011;46248;58.364;25.582;2024-02-21T01:30:48;5.22;;;3.30;;
59766;SDS011;46248;58.364;25.582;2024-02-21T01:34:11;8.20;;;3.38;;
59766;SDS011;46248;58.364;25.582;2024-02-21T01:37:33;6.35;;;3.22;;
59766;SDS011;46248;58.364;25.582;2024-02-21T01:40:55;6.85;;;3.15;;
59766;SDS011;46248;58.364;25.582;2024-02-21T01:44:18;7.07;;;3.40;;
59766;SDS011;46248;58.364;25.582;2024-02-21T01:47:39;5.07;;;3.30;;
59766;SDS011;46248;58.364;25.582;2024-02-21T01:51:03;5.43;;;3.20;;
59766;SDS011;46248;58.364;25.582;2024-02-21T01:54:26;5.05;;;3.25;;
59766;SDS011;46248;58.364;25.582;2024-02-21T01:57:48;6.32;;;3.28;;
59766;SDS011;46248;58.364;25.582;2024-02-21T02:01:10;7.75;;;3.30;;
59766;SDS011;46248;58.364;25.582;2024-02-21T02:04:34;5.15;;;2.95;;
59766;SDS011;46248;58.364;25.582;2024-02-21T02:07:58;5.72;;;2.92;;
59766;SDS011;46248;58.364;25.582;2024-02-21T02:11:20;7.57;;;2.97;;
59766;SDS011;46248;58.364;25.582;2024-02-21T02:14:42;5.30;;;2.70;;
59766;SDS011;46248;58.364;25.582;2024-02-21T02:18:04;6.68;;;3.05;;
59766;SDS011;46248;58.364;25.582;2024-02-21T02:21:27;4.57;;;3.08;;
59766;SDS011;46248;58.364;25.582;2024-02-21T02:24:52;6.50;;;3.00;;
59766;SDS011;46248;58.364;25.582;2024-02-21T02:28:14;8.13;;;2.97;;
59766;SDS011;46248;58.364;25.582;2024-02-21T02:31:36;9.90;;;3.80;;
59766;SDS011;46248;58.364;25.582;2024-02-21T02:34:59;5.20;;;3.42;;
59766;SDS011;46248;58.364;25.582;2024-02-21T02:38:21;4.32;;;3.10;;
59766;SDS011;46248;58.364;25.582;2024-02-21T02:41:44;6.63;;;3.50;;
59766;SDS011;46248;58.364;25.582;2024-02-21T02:45:06;7.63;;;3.33;;
59766;SDS011;46248;58.364;25.582;2024-02-21T02:48:29;6.20;;;4.22;;
59766;SDS011;46248;58.364;25.582;2024-02-21T02:51:51;6.35;;;3.97;;
59766;SDS011;46248;58.364;25.582;2024-02-21T02:55:13;6.88;;;3.80;;
59766;SDS011;46248;58.364;25.582;2024-02-21T02:58:36;5.72;;;3.58;;
59766;SDS011;46248;58.364;25.582;2024-02-21T03:01:58;7.13;;;3.50;;
59766;SDS011;46248;58.364;25.582;2024-02-21T03:05:20;7.38;;;3.63;;
59766;SDS011;46248;58.364;25.582;2024-02-21T03:08:43;6.43;;;3.33;;
59766;SDS011;46248;58.364;25.582;2024-02-21T03:12:05;6.95;;;3.40;;
59766;SDS011;46248;58.364;25.582;2024-02-21T03:15:29;6.53;;;3.75;;
59766;SDS011;46248;58.364;25.582;2024-02-21T03:18:51;6.88;;;3.47;;
59766;SDS011;46248;58.364;25.582;2024-02-21T03:22:12;7.75;;;3.50;;
59766;SDS011;46248;58.364;25.582;2024-02-21T03:25:34;6.57;;;3.65;;
59766;SDS011;46248;58.364;25.582;2024-02-21T03:28:56;5.30;;;2.30;;
59766;SDS011;46248;58.364;25.582;2024-02-21T03:32:19;5.80;;;3.92;;
59766;SDS011;46248;58.364;25.582;2024-02-21T03:35:41;8.32;;;4.20;;
59766;SDS011;46248;58.364;25.582;2024-02-21T03:39:03;8.82;;;4.18;;
59766;SDS011;46248;58.364;25.582;2024-02-21T03:42:25;8.65;;;4.50;;
59766;SDS011;46248;58.364;25.582;2024-02-21T03:45:50;8.30;;;4.40;;
59766;SDS011;46248;58.364;25.582;2024-02-21T03:49:13;7.82;;;4.43;;
59766;SDS011;46248;58.364;25.582;2024-02-21T03:52:35;8.35;;;4.70;;
59766;SDS011;46248;58.364;25.582;2024-02-21T03:56:00;8.50;;;3.97;;
59766;SDS011;46248;58.364;25.582;2024-02-21T03:59:24;5.63;;;3.25;;
59766;SDS011;46248;58.364;25.582;2024-02-21T04:02:46;7.43;;;4.00;;
59766;SDS011;46248;58.364;25.582;2024-02-21T04:06:09;8.50;;;4.25;;
59766;SDS011;46248;58.364;25.582;2024-02-21T04:09:31;10.70;;;4.43;;
59766;SDS011;46248;58.364;25.582;2024-02-21T04:12:53;9.27;;;4.15;;
59766;SDS011;46248;58.364;25.582;2024-02-21T04:16:15;9.18;;;4.60;;
59766;SDS011;46248;58.364;25.582;2024-02-21T04:19:37;8.77;;;5.13;;
59766;SDS011;46248;58.364;25.582;2024-02-21T04:23:01;8.77;;;4.45;;
59766;SDS011;46248;58.364;25.582;2024-02-21T04:26:23;10.80;;;4.93;;
59766;SDS011;46248;58.364;25.582;2024-02-21T04:29:45;11.70;;;5.43;;
59766;SDS011;46248;58.364;25.582;2024-02-21T04:33:07;8.07;;;4.68;;
59766;SDS011;46248;58.364;25.582;2024-02-21T04:36:29;8.43;;;5.10;;
59766;SDS011;46248;58.364;25.582;2024-02-21T04:39:52;8.63;;;5.03;;
59766;SDS011;46248;58.364;25.582;2024-02-21T04:43:13;9.25;;;4.28;;
59766;SDS011;46248;58.364;25.582;2024-02-21T04:46:35;8.48;;;5.03;;
59766;SDS011;46248;58.364;25.582;2024-02-21T04:49:57;12.70;;;5.43;;
59766;SDS011;46248;58.364;25.582;2024-02-21T04:53:19;9.05;;;5.25;;
59766;SDS011;46248;58.364;25.582;2024-02-21T04:56:43;11.02;;;4.63;;
59766;SDS011;46248;58.364;25.582;2024-02-21T05:00:05;8.48;;;4.82;;
59766;SDS011;46248;58.364;25.582;2024-02-21T05:03:27;7.15;;;4.05;;
59766;SDS011;46248;58.364;25.582;2024-02-21T05:06:49;7.90;;;3.97;;
59766;SDS011;46248;58.364;25.582;2024-02-21T05:10:11;6.97;;;3.90;;
59766;SDS011;46248;58.364;25.582;2024-02-21T05:13:34;10.38;;;5.45;;
59766;SDS011;46248;58.364;25.582;2024-02-21T05:16:56;12.52;;;5.50;;
59766;SDS011;46248;58.364;25.582;2024-02-21T05:20:18;7.13;;;4.50;;
59766;SDS011;46248;58.364;25.582;2024-02-21T05:23:40;8.85;;;4.60;;
59766;SDS011;46248;58.364;25.582;2024-02-21T05:27:02;10.77;;;5.07;;
59766;SDS011;46248;58.364;25.582;2024-02-21T05:30:26;8.93;;;4.78;;
59766;SDS011;46248;58.364;25.582;2024-02-21T05:33:48;10.02;;;5.00;;
59766;SDS011;46248;58.364;25.582;2024-02-21T05:37:10;9.43;;;4.47;;
59766;SDS011;46248;58.364;25.582;2024-02-21T05:40:31;8.30;;;4.85;;
59766;SDS011;46248;58.364;25.582;2024-02-21T05:43:53;8.38;;;4.95;;
59766;SDS011;46248;58.364;25.582;2024-02-21T05:47:16;10.00;;;5.63;;
59766;SDS011;46248;58.364;25.582;2024-02-21T05:50:40;8.43;;;4.65;;
59766;SDS011;46248;58.364;25.582;2024-02-21T05:54:02;12.95;;;5.28;;
59766;SDS011;46248;58.364;25.582;2024-02-21T05:57:24;10.07;;;5.45;;
59766;SDS011;46248;58.364;25.582;2024-02-21T06:00:46;11.70;;;5.90;;
59766;SDS011;46248;58.364;25.582;2024-02-21T06:04:09;9.57;;;5.03;;
59766;SDS011;46248;58.364;25.582;2024-02-21T06:07:32;11.18;;;5.95;;
59766;SDS011;46248;58.364;25.582;2024-02-21T06:10:53;11.35;;;6.00;;
59766;SDS011;46248;58.364;25.582;2024-02-21T06:14:15;9.07;;;5.13;;
59766;SDS011;46248;58.364;25.582;2024-02-21T06:17:38;11.18;;;5.00;;
59766;SDS011;46248;58.364;25.582;2024-02-21T06:21:01;8.00;;;4.68;;
59766;SDS011;46248;58.364;25.582;2024-02-21T06:24:23;7.97;;;4.82;;
59766;SDS011;46248;58.364;25.582;2024-02-21T06:27:44;9.88;;;5.93;;
59766;SDS011;46248;58.364;25.582;2024-02-21T06:31:07;13.13;;;5.70;;
59766;SDS011;46248;58.364;25.582;2024-02-21T06:34:28;8.48;;;5.15;;
59766;SDS011;46248;58.364;25.582;2024-02-21T06:37:55;7.38;;;4.45;;
59766;SDS011;46248;58.364;25.582;2024-02-21T06:41:17;9.70;;;5.25;;
59766;SDS011;46248;58.364;25.582;2024-02-21T06:44:40;11.07;;;5.53;;
59766;SDS011;46248;58.364;25.582;2024-02-21T06:48:02;13.30;;;5.85;;
59766;SDS011;46248;58.364;25.582;2024-02-21T06:51:24;8.43;;;5.53;;
59766;SDS011;46248;58.364;25.582;2024-02-21T06:54:47;10.20;;;4.78;;
59766;SDS011;46248;58.364;25.582;2024-02-21T06:58:09;10.15;;;5.45;;
59766;SDS011;46248;58.364;25.582;2024-02-21T07:01:32;8.90;;;5.25;;
59766;SDS011;46248;58.364;25.582;2024-02-21T07:04:54;10.10;;;5.90;;
59766;SDS011;46248;58.364;25.582;2024-02-21T07:08:16;8.90;;;5.55;;
59766;SDS011;46248;58.364;25.582;2024-02-21T07:11:39;13.20;;;7.00;;
59766;SDS011;46248;58.364;25.582;2024-02-21T07:15:01;8.35;;;5.22;;
59766;SDS011;46248;58.364;25.582;2024-02-21T07:18:26;11.63;;;5.90;;
59766;SDS011;46248;58.364;25.582;2024-02-21T07:21:48;11.70;;;5.70;;
59766;SDS011;46248;58.364;25.582;2024-02-21T07:25:10;13.27;;;6.72;;
59766;SDS011;46248;58.364;25.582;2024-02-21T07:28:33;11.30;;;5.78;;
59766;SDS011;46248;58.364;25.582;2024-02-21T07:31:55;8.55;;;5.60;;
59766;SDS011;46248;58.364;25.582;2024-02-21T07:35:17;12.25;;;6.22;;
59766;SDS011;46248;58.364;25.582;2024-02-21T07:38:39;10.13;;;6.07;;
59766;SDS011;46248;58.364;25.582;2024-02-21T07:42:02;11.77;;;5.97;;
59766;SDS011;46248;58.364;25.582;2024-02-21T07:45:25;12.65;;;6.57;;
59766;SDS011;46248;58.364;25.582;2024-02-21T07:48:46;12.50;;;5.93;;
59766;SDS011;46248;58.364;25.582;2024-02-21T07:52:08;10.05;;;5.80;;
59766;SDS011;46248;58.364;25.582;2024-02-21T07:55:30;11.40;;;6.38;;
59766;SDS011;46248;58.364;25.582;2024-02-21T07:58:52;9.43;;;6.18;;
59766;SDS011;46248;58.364;25.582;2024-02-21T08:02:16;10.13;;;6.07;;
59766;SDS011;46248;58.364;25.582;2024-02-21T08:05:38;10.32;;;6.82;;
59766;SDS011;46248;58.364;25.582;2024-02-21T08:08:59;11.13;;;5.15;;
59766;SDS011;46248;58.364;25.582;2024-02-21T08:12:22;10.90;;;6.40;;
59766;SDS011;46248;58.364;25.582;2024-02-21T08:15:44;10.50;;;6.78;;
59766;SDS011;46248;58.364;25.582;2024-02-21T08:19:07;11.70;;;6.60;;
59766;SDS011;46248;58.364;25.582;2024-02-21T08:22:29;11.60;;;6.57;;
59766;SDS011;46248;58.364;25.582;2024-02-21T08:25:51;9.85;;;6.68;;
59766;SDS011;46248;58.364;25.582;2024-02-21T08:29:13;11.85;;;6.43;;
59766;SDS011;46248;58.364;25.582;2024-02-21T08:32:35;10.23;;;6.70;;
59766;SDS011;46248;58.364;25.582;2024-02-21T08:35:58;10.63;;;6.28;;
59766;SDS011;46248;58.364;25.582;2024-02-21T08:39:20;14.88;;;7.05;;
59766;SDS011;46248;58.364;25.582;2024-02-21T08:42:42;9.18;;;6.35;;
59766;SDS011;46248;58.364;25.582;2024-02-21T08:46:04;11.25;;;6.30;;
59766;SDS011;46248;58.364;25.582;2024-02-21T08:49:26;13.68;;;6.28;;
59766;SDS011;46248;58.364;25.582;2024-02-21T08:52:55;16.50;;;7.45;;
59766;SDS011;46248;58.364;25.582;2024-02-21T08:56:17;12.63;;;7.07;;
59766;SDS011;46248;58.364;25.582;2024-02-21T08:59:39;13.43;;;7.00;;
59766;SDS011;46248;58.364;25.582;2024-02-21T09:03:01;14.02;;;6.93;;
59766;SDS011;46248;58.364;25.582;2024-02-21T09:06:23;13.15;;;6.82;;
59766;SDS011;46248;58.364;25.582;2024-02-21T09:09:47;14.77;;;7.45;;
59766;SDS011;46248;58.364;25.582;2024-02-21T09:13:08;16.92;;;7.70;;
59766;SDS011;46248;58.364;25.582;2024-02-21T09:16:31;12.43;;;6.53;;
59766;SDS011;46248;58.364;25.582;2024-02-21T09:19:53;14.45;;;7.38;;
59766;SDS011;46248;58.364;25.582;2024-02-21T09:23:20;18.67;;;8.38;;
59766;SDS011;46248;58.364;25.582;2024-02-21T09:26:43;15.52;;;7.38;;
59766;SDS011;46248;58.364;25.582;2024-02-21T09:30:06;17.92;;;8.20;;
59766;SDS011;46248;58.364;25.582;2024-02-21T09:33:29;14.50;;;7.95;;
59766;SDS011;46248;58.364;25.582;2024-02-21T09:36:52;15.00;;;7.63;;
59766;SDS011;46248;58.364;25.582;2024-02-21T09:40:14;15.50;;;7.65;;
59766;SDS011;46248;58.364;25.582;2024-02-21T09:43:39;14.40;;;7.30;;
59766;SDS011;46248;58.364;25.582;2024-02-21T09:47:02;14.13;;;7.68;;
59766;SDS011;46248;58.364;25.582;2024-02-21T09:50:25;15.13;;;8.30;;
59766;SDS011;46248;58.364;25.582;2024-02-21T09:53:48;15.38;;;8.80;;
59766;SDS011;46248;58.364;25.582;2024-02-21T09:57:25;14.88;;;7.95;;
59766;SDS011;46248;58.364;25.582;2024-02-21T10:00:50;18.85;;;8.27;;
59766;SDS011;46248;58.364;25.582;2024-02-21T10:04:12;21.20;;;10.88;;
59766;SDS011;46248;58.364;25.582;2024-02-21T10:07:34;27.00;;;14.90;;
59766;SDS011;46248;58.364;25.582;2024-02-21T10:10:56;30.45;;;15.52;;
59766;SDS011;46248;58.364;25.582;2024-02-21T10:14:23;30.60;;;16.60;;
59766;SDS011;46248;58.364;25.582;2024-02-21T10:17:46;20.63;;;12.70;;
59766;SDS011;46248;58.364;25.582;2024-02-21T10:21:21;27.92;;;14.02;;
59766;SDS011;46248;58.364;25.582;2024-02-21T10:24:51;24.65;;;15.05;;
59766;SDS011;46248;58.364;25.582;2024-02-21T10:28:16;21.08;;;11.80;;
59766;SDS011;46248;58.364;25.582;2024-02-21T10:31:46;17.15;;;10.57;;
59766;SDS011;46248;58.364;25.582;2024-02-21T10:35:09;19.63;;;10.27;;
59766;SDS011;46248;58.364;25.582;2024-02-21T10:38:34;27.30;;;13.88;;
59766;SDS011;46248;58.364;25.582;2024-02-21T10:41:56;16.35;;;10.30;;
59766;SDS011;46248;58.364;25.582;2024-02-21T10:45:22;18.83;;;10.23;;
59766;SDS011;46248;58.364;25.582;2024-02-21T10:48:48;15.52;;;7.95;;
59766;SDS011;46248;58.364;25.582;2024-02-21T10:52:26;19.38;;;10.50;;
59766;SDS011;46248;58.364;25.582;2024-02-21T10:56:04;16.17;;;8.95;;
59766;SDS011;46248;58.364;25.582;2024-02-21T10:59:33;19.60;;;10.10;;
59766;SDS011;46248;58.364;25.582;2024-02-21T11:02:56;31.15;;;24.42;;
59766;SDS011;46248;58.364;25.582;2024-02-21T11:06:18;18.27;;;10.30;;
59766;SDS011;46248;58.364;25.582;2024-02-21T11:09:50;18.20;;;9.40;;
59766;SDS011;46248;58.364;25.582;2024-02-21T11:13:12;21.02;;;11.35;;
59766;SDS011;46248;58.364;25.582;2024-02-21T11:16:35;18.27;;;10.32;;
59766;SDS011;46248;58.364;25.582;2024-02-21T11:20:10;16.83;;;12.60;;
59766;SDS011;46248;58.364;25.582;2024-02-21T11:23:33;15.43;;;7.40;;
59766;SDS011;46248;58.364;25.582;2024-02-21T11:26:56;19.27;;;7.97;;
59766;SDS011;46248;58.364;25.582;2024-02-21T11:30:30;11.73;;;6.85;;
59766;SDS011;46248;58.364;25.582;2024-02-21T11:33:53;14.30;;;8.70;;
59766;SDS011;46248;58.364;25.582;2024-02-21T11:37:15;15.18;;;8.57;;
59766;SDS011;46248;58.364;25.582;2024-02-21T11:40:38;41.90;;;21.98;;
59766;SDS011;46248;58.364;25.582;2024-02-21T11:44:02;22.50;;;13.65;;
59766;SDS011;46248;58.364;25.582;2024-02-21T11:47:24;26.00;;;16.70;;
59766;SDS011;46248;58.364;25.582;2024-02-21T11:50:52;21.15;;;11.25;;
59766;SDS011;46248;58.364;25.582;2024-02-21T11:54:14;12.80;;;7.55;;
59766;SDS011;46248;58.364;25.582;2024-02-21T11:57:37;10.93;;;6.30;;
59766;SDS011;46248;58.364;25.582;2024-02-21T12:01:05;13.30;;;7.90;;
59766;SDS011;46248;58.364;25.582;2024-02-21T12:04:27;16.83;;;9.60;;
59766;SDS011;46248;58.364;25.582;2024-02-21T12:07:50;12.23;;;7.00;;
59766;SDS011;46248;58.364;25.582;2024-02-21T12:11:18;10.77;;;6.70;;
59766;SDS011;46248;58.364;25.582;2024-02-21T12:14:43;13.70;;;6.78;;
59766;SDS011;46248;58.364;25.582;2024-02-21T12:18:06;13.60;;;7.35;;
59766;SDS011;46248;58.364;25.582;2024-02-21T12:21:29;18.75;;;12.13;;
59766;SDS011;46248;58.364;25.582;2024-02-21T12:24:53;12.73;;;7.88;;
59766;SDS011;46248;58.364;25.582;2024-02-21T12:28:15;13.63;;;8.43;;
59766;SDS011;46248;58.364;25.582;2024-02-21T12:31:37;13.23;;;6.95;;
59766;SDS011;46248;58.364;25.582;2024-02-21T12:35:01;10.40;;;6.45;;
59766;SDS011;46248;58.364;25.582;2024-02-21T12:38:24;14.18;;;7.60;;
59766;SDS011;46248;58.364;25.582;2024-02-21T12:41:46;13.95;;;7.35;;
59766;SDS011;46248;58.364;25.582;2024-02-21T12:45:08;19.13;;;10.18;;
59766;SDS011;46248;58.364;25.582;2024-02-21T12:48:31;12.57;;;8.00;;
59766;SDS011;46248;58.364;25.582;2024-02-21T12:51:54;14.35;;;7.32;;
59766;SDS011;46248;58.364;25.582;2024-02-21T12:55:17;12.75;;;8.02;;
59766;SDS011;46248;58.364;25.582;2024-02-21T12:58:38;13.88;;;8.20;;
59766;SDS011;46248;58.364;25.582;2024-02-21T13:02:00;13.30;;;8.52;;
59766;SDS011;46248;58.364;25.582;2024-02-21T13:05:22;11.23;;;6.28;;
59766;SDS011;46248;58.364;25.582;2024-02-21T13:08:46;11.93;;;6.45;;
59766;SDS011;46248;58.364;25.582;2024-02-21T13:12:07;12.75;;;7.50;;
59766;SDS011;46248;58.364;25.582;2024-02-21T13:15:30;10.40;;;6.03;;
59766;SDS011;46248;58.364;25.582;2024-02-21T13:18:51;14.38;;;7.78;;
59766;SDS011;46248;58.364;25.582;2024-02-21T13:22:16;10.60;;;6.18;;
59766;SDS011;46248;58.364;25.582;2024-02-21T13:25:42;12.80;;;7.43;;
59766;SDS011;46248;58.364;25.582;2024-02-21T13:29:04;12.55;;;7.32;;
59766;SDS011;46248;58.364;25.582;2024-02-21T13:32:27;11.10;;;7.00;;
59766;SDS011;46248;58.364;25.582;2024-02-21T13:35:48;12.52;;;7.50;;
59766;SDS011;46248;58.364;25.582;2024-02-21T13:39:10;12.18;;;7.63;;
59766;SDS011;46248;58.364;25.582;2024-02-21T13:42:38;12.07;;;6.45;;
59766;SDS011;46248;58.364;25.582;2024-02-21T13:46:00;10.40;;;6.35;;
59766;SDS011;46248;58.364;25.582;2024-02-21T13:49:25;9.40;;;5.78;;
59766;SDS011;46248;58.364;25.582;2024-02-21T13:52:48;13.13;;;6.00;;
59766;SDS011;46248;58.364;25.582;2024-02-21T13:56:11;9.10;;;6.22;;
59766;SDS011;46248;58.364;25.582;2024-02-21T13:59:34;8.55;;;6.45;;
59766;SDS011;46248;58.364;25.582;2024-02-21T14:02:56;11.82;;;7.13;;
59766;SDS011;46248;58.364;25.582;2024-02-21T14:06:18;13.48;;;7.15;;
59766;SDS011;46248;58.364;25.582;2024-02-21T14:09:40;27.83;;;14.10;;
59766;SDS011;46248;58.364;25.582;2024-02-21T14:13:03;19.00;;;9.52;;
59766;SDS011;46248;58.364;25.582;2024-02-21T14:16:27;14.95;;;8.20;;
59766;SDS011;46248;58.364;25.582;2024-02-21T14:19:50;13.63;;;7.38;;
59766;SDS011;46248;58.364;25.582;2024-02-21T14:23:13;12.65;;;7.13;;
59766;SDS011;46248;58.364;25.582;2024-02-21T14:26:35;11.35;;;6.60;;
59766;SDS011;46248;58.364;25.582;2024-02-21T14:29:57;10.75;;;6.97;;
59766;SDS011;46248;58.364;25.582;2024-02-21T14:33:20;10.07;;;6.15;;
59766;SDS011;46248;58.364;25.582;2024-02-21T14:36:42;10.60;;;5.75;;
59766;SDS011;46248;58.364;25.582;2024-02-21T14:40:05;11.88;;;5.30;;
59766;SDS011;46248;58.364;25.582;2024-02-21T14:43:28;10.68;;;5.78;;
59766;SDS011;46248;58.364;25.582;2024-02-21T14:46:50;8.90;;;5.05;;
59766;SDS011;46248;58.364;25.582;2024-02-21T14:50:13;10.70;;;5.57;;
59766;SDS011;46248;58.364;25.582;2024-02-21T14:53:36;8.80;;;5.38;;
59766;SDS011;46248;58.364;25.582;2024-02-21T14:56:58;10.88;;;5.90;;
59766;SDS011;46248;58.364;25.582;2024-02-21T15:00:20;10.52;;;5.60;;
59766;SDS011;46248;58.364;25.582;2024-02-21T15:03:49;8.18;;;4.47;;
59766;SDS011;46248;58.364;25.582;2024-02-21T15:07:13;7.28;;;4.40;;
59766;SDS011;46248;58.364;25.582;2024-02-21T15:10:34;6.63;;;3.83;;
59766;SDS011;46248;58.364;25.582;2024-02-21T15:13:57;5.65;;;3.58;;
59766;SDS011;46248;58.364;25.582;2024-02-21T15:17:19;7.25;;;3.35;;
59766;SDS011;46248;58.364;25.582;2024-02-21T15:20:41;5.40;;;3.70;;
59766;SDS011;46248;58.364;25.582;2024-02-21T15:24:04;7.18;;;4.10;;
59766;SDS011;46248;58.364;25.582;2024-02-21T15:27:26;7.40;;;3.50;;
59766;SDS011;46248;58.364;25.582;2024-02-21T15:30:48;11.10;;;4.40;;
59766;SDS011;46248;58.364;25.582;2024-02-21T15:34:11;7.80;;;3.65;;
59766;SDS011;46248;58.364;25.582;2024-02-21T15:37:33;7.35;;;4.38;;
59766;SDS011;46248;58.364;25.582;2024-02-21T15:40:56;8.35;;;3.78;;
59766;SDS011;46248;58.364;25.582;2024-02-21T15:44:18;5.82;;;3.35;;
59766;SDS011;46248;58.364;25.582;2024-02-21T15:47:41;4.78;;;3.00;;
59766;SDS011;46248;58.364;25.582;2024-02-21T15:51:03;4.60;;;3.03;;
59766;SDS011;46248;58.364;25.582;2024-02-21T15:54:27;6.00;;;3.63;;
59766;SDS011;46248;58.364;25.582;2024-02-21T15:57:50;6.45;;;3.20;;
59766;SDS011;46248;58.364;25.582;2024-02-21T16:01:11;4.20;;;2.95;;
59766;SDS011;46248;58.364;25.582;2024-02-21T16:04:34;4.88;;;2.95;;
59766;SDS011;46248;58.364;25.582;2024-02-21T16:07:55;6.82;;;3.58;;
59766;SDS011;46248;58.364;25.582;2024-02-21T16:11:17;8.02;;;3.75;;
59766;SDS011;46248;58.364;25.582;2024-02-21T16:14:41;8.82;;;4.30;;
59766;SDS011;46248;58.364;25.582;2024-02-21T16:18:02;7.50;;;3.53;;
59766;SDS011;46248;58.364;25.582;2024-02-21T16:21:26;5.35;;;3.45;;
59766;SDS011;46248;58.364;25.582;2024-02-21T16:24:48;6.85;;;4.10;;
59766;SDS011;46248;58.364;25.582;2024-02-21T16:28:12;5.57;;;3.55;;
59766;SDS011;46248;58.364;25.582;2024-02-21T16:31:35;8.02;;;4.45;;
59766;SDS011;46248;58.364;25.582;2024-02-21T16:34:57;6.53;;;4.10;;
59766;SDS011;46248;58.364;25.582;2024-02-21T16:38:20;6.43;;;3.50;;
59766;SDS011;46248;58.364;25.582;2024-02-21T16:41:43;8.15;;;3.50;;
59766;SDS011;46248;58.364;25.582;2024-02-21T16:45:05;8.02;;;4.68;;
59766;SDS011;46248;58.364;25.582;2024-02-21T16:48:30;5.85;;;3.70;;
59766;SDS011;46248;58.364;25.582;2024-02-21T16:51:51;7.35;;;3.88;;
59766;SDS011;46248;58.364;25.582;2024-02-21T16:55:13;8.93;;;5.18;;
59766;SDS011;46248;58.364;25.582;2024-02-21T16:58:36;8.38;;;4.05;;
59766;SDS011;46248;58.364;25.582;2024-02-21T17:01:58;9.07;;;4.13;;
59766;SDS011;46248;58.364;25.582;2024-02-21T17:05:23;7.90;;;4.38;;
59766;SDS011;46248;58.364;25.582;2024-02-21T17:08:46;6.43;;;4.13;;
59766;SDS011;46248;58.364;25.582;2024-02-21T17:12:08;9.90;;;5.78;;
59766;SDS011;46248;58.364;25.582;2024-02-21T17:15:30;7.53;;;4.68;;
59766;SDS011;46248;58.364;25.582;2024-02-21T17:18:52;11.45;;;5.25;;
59766;SDS011;46248;58.364;25.582;2024-02-21T17:22:15;14.75;;;7.28;;
59766;SDS011;46248;58.364;25.582;2024-02-21T17:25:37;8.43;;;5.03;;
59766;SDS011;46248;58.364;25.582;2024-02-21T17:28:59;7.53;;;4.78;;
59766;SDS011;46248;58.364;25.582;2024-02-21T17:32:22;10.57;;;4.43;;
59766;SDS011;46248;58.364;25.582;2024-02-21T17:35:44;7.95;;;4.28;;
59766;SDS011;46248;58.364;25.582;2024-02-21T17:39:09;9.13;;;5.13;;
59766;SDS011;46248;58.364;25.582;2024-02-21T17:42:31;10.77;;;5.88;;
59766;SDS011;46248;58.364;25.582;2024-02-21T17:45:53;8.65;;;4.57;;
59766;SDS011;46248;58.364;25.582;2024-02-21T17:49:16;9.68;;;4.00;;
59766;SDS011;46248;58.364;25.582;2024-02-21T17:52:41;7.47;;;3.50;;
59766;SDS011;46248;58.364;25.582;2024-02-21T17:56:04;6.75;;;3.75;;
59766;SDS011;46248;58.364;25.582;2024-02-21T17:59:28;7.35;;;4.28;;
59766;SDS011;46248;58.364;25.582;2024-02-21T18:02:50;8.48;;;4.75;;
59766;SDS011;46248;58.364;25.582;2024-02-21T18:06:11;15.25;;;7.00;;
59766;SDS011;46248;58.364;25.582;2024-02-21T18:09:37;11.00;;;5.30;;
59766;SDS011;46248;58.364;25.582;2024-02-21T18:13:01;12.05;;;5.70;;
59766;SDS011;46248;58.364;25.582;2024-02-21T18:16:25;9.25;;;5.43;;
59766;SDS011;46248;58.364;25.582;2024-02-21T18:19:47;10.93;;;5.43;;
59766;SDS011;46248;58.364;25.582;2024-02-21T18:23:08;12.85;;;5.22;;
59766;SDS011;46248;58.364;25.582;2024-02-21T18:26:30;10.98;;;5.68;;
59766;SDS011;46248;58.364;25.582;2024-02-21T18:29:54;10.60;;;5.72;;
59766;SDS011;46248;58.364;25.582;2024-02-21T18:33:16;9.68;;;5.22;;
59766;SDS011;46248;58.364;25.582;2024-02-21T18:36:39;13.13;;;6.15;;
59766;SDS011;46248;58.364;25.582;2024-02-21T18:40:00;12.30;;;6.00;;
59766;SDS011;46248;58.364;25.582;2024-02-21T18:43:30;12.50;;;4.85;;
59766;SDS011;46248;58.364;25.582;2024-02-21T18:46:53;10.77;;;5.97;;
59766;SDS011;46248;58.364;25.582;2024-02-21T18:50:16;11.52;;;5.45;;
59766;SDS011;46248;58.364;25.582;2024-02-21T18:53:39;18.58;;;6.35;;
59766;SDS011;46248;58.364;25.582;2024-02-21T18:57:01;13.77;;;6.15;;
59766;SDS011;46248;58.364;25.582;2024-02-21T19:00:23;9.60;;;4.80;;
59766;SDS011;46248;58.364;25.582;2024-02-21T19:03:47;12.88;;;6.15;;
59766;SDS011;46248;58.364;25.582;2024-02-21T19:07:09;11.90;;;5.57;;
59766;SDS011;46248;58.364;25.582;2024-02-21T19:10:31;11.77;;;5.95;;
59766;SDS011;46248;58.364;25.582;2024-02-21T19:13:52;10.07;;;5.38;;
59766;SDS011;46248;58.364;25.582;2024-02-21T19:17:14;11.25;;;5.72;;
59766;SDS011;46248;58.364;25.582;2024-02-21T19:20:37;10.95;;;5.10;;
59766;SDS011;46248;58.364;25.582;2024-02-21T19:23:59;9.77;;;5.35;;
59766;SDS011;46248;58.364;25.582;2024-02-21T19:27:21;10.35;;;5.18;;
59766;SDS011;46248;58.364;25.582;2024-02-21T19:30:43;11.18;;;4.93;;
59766;SDS011;46248;58.364;25.582;2024-02-21T19:34:05;11.77;;;5.57;;
59766;SDS011;46248;58.364;25.582;2024-02-21T19:37:30;8.85;;;5.18;;
59766;SDS011;46248;58.364;25.582;2024-02-21T19:40:52;12.05;;;5.90;;
59766;SDS011;46248;58.364;25.582;2024-02-21T19:44:14;9.55;;;5.57;;
59766;SDS011;46248;58.364;25.582;2024-02-21T19:47:37;11.57;;;5.22;;
59766;SDS011;46248;58.364;25.582;2024-02-21T19:50:59;24.77;;;13.15;;
59766;SDS011;46248;58.364;25.582;2024-02-21T19:54:22;12.80;;;6.50;;